KCTY/CTY METAR and TAF weather

Enter ICAO airport designator
Station Type Date Time Source
KCTY METAR 2020/02/26 09:55 UTC NOAA

KCTY 260955Z AUTO 30007KT 7SM CLR 16/16 A2994 RMK AO2 T01640163


Station Type Date Time Source
KCTY Decoded METAR 2020/02/26 09:55 UTC NOAA

CROSS CITY AIRPORT, FL, United States (KCTY) 29-38N 083-06W 12M
Feb 26, 2020 - 04:55 AM EST / 2020.02.26 0955 UTC
Wind: from the WNW (300 degrees) at 8 MPH (7 KT):0
Visibility: 7 mile(s):0
Sky conditions: clear
Temperature: 61.5 F (16.4 C)
Dew Point: 61.3 F (16.3 C)
Relative Humidity: 99%
Pressure (altimeter): 29.94 in. Hg (1013 hPa)
ob: KCTY 260955Z AUTO 30007KT 7SM CLR 16/16 A2994 RMK AO2 T01640163
cycle: 10

Station Type Date Time Source
KCTY TAF UTC NOAA

Error!

Example: see airport list